createdAt,value
2019-04-28T00:00:47.215Z,50.80
2019-04-28T00:02:15.101Z,51.30
2019-04-28T00:03:41.983Z,51.20
2019-04-28T00:05:07.764Z,50.70
2019-04-28T00:06:33.261Z,50.50
2019-04-28T00:08:00.854Z,51.20
2019-04-28T00:09:26.265Z,51.70
2019-04-28T00:10:53.342Z,51.40
2019-04-28T00:12:19.161Z,52.00
2019-04-28T00:13:45.352Z,51.50
2019-04-28T00:15:11.200Z,51.60
2019-04-28T00:16:36.795Z,51.20
2019-04-28T00:18:04.145Z,51.50
2019-04-28T00:19:30.980Z,51.30
2019-04-28T00:21:21.531Z,51.30
2019-04-28T00:22:58.716Z,51.30
2019-04-28T00:24:43.058Z,51.70
2019-04-28T00:26:21.256Z,51.20
2019-04-28T00:27:46.713Z,51.60
2019-04-28T00:29:12.656Z,51.40
2019-04-28T00:30:38.240Z,49.70
2019-04-28T00:32:03.881Z,50.50
2019-04-28T00:33:29.430Z,49.60
2019-04-28T00:34:55.017Z,50.80
2019-04-28T00:36:21.577Z,51.30
2019-04-28T00:37:47.187Z,51.50
2019-04-28T00:39:13.061Z,51.60
2019-04-28T00:40:38.595Z,51.60
2019-04-28T00:42:04.198Z,51.20
2019-04-28T00:43:31.700Z,51.30
2019-04-28T00:44:56.831Z,51.20
2019-04-28T00:46:27.217Z,49.40
2019-04-28T00:47:52.881Z,49.90
2019-04-28T00:49:21.493Z,50.10
2019-04-28T00:50:47.553Z,50.90
2019-04-28T00:52:13.095Z,50.90
2019-04-28T00:53:38.660Z,51.10
2019-04-28T00:55:05.639Z,51.00
2019-04-28T00:56:31.673Z,51.10
2019-04-28T00:57:57.364Z,51.40
2019-04-28T00:59:23.008Z,51.80
2019-04-28T01:00:51.360Z,51.80
2019-04-28T01:02:22.173Z,51.80
2019-04-28T01:03:47.614Z,51.40
2019-04-28T01:05:13.556Z,51.50
2019-04-28T01:06:39.018Z,51.20
2019-04-28T01:08:04.916Z,51.20
2019-04-28T01:09:31.587Z,51.60
2019-04-28T01:10:57.503Z,51.70
2019-04-28T01:12:23.157Z,51.30
2019-04-28T01:13:48.716Z,51.60
2019-04-28T01:15:32.275Z,51.90
2019-04-28T01:17:10.795Z,52.00
2019-04-28T01:19:01.025Z,51.80
2019-04-28T01:20:26.753Z,51.80
2019-04-28T01:22:11.584Z,51.90
2019-04-28T01:23:37.144Z,51.70
2019-04-28T01:25:02.645Z,51.90
2019-04-28T01:26:29.898Z,51.70
2019-04-28T01:27:56.443Z,51.70
2019-04-28T01:29:21.890Z,52.00
2019-04-28T01:31:04.966Z,51.70
2019-04-28T01:32:39.997Z,52.20
2019-04-28T01:34:20.416Z,52.30
2019-04-28T01:35:46.391Z,52.30
2019-04-28T01:37:11.845Z,52.40
2019-04-28T01:38:40.415Z,52.20
2019-04-28T01:40:06.224Z,52.10
2019-04-28T01:41:31.747Z,51.80
2019-04-28T01:42:57.249Z,51.80
2019-04-28T01:44:22.740Z,51.90
2019-04-28T01:45:50.107Z,52.00
2019-04-28T01:47:15.513Z,51.70
2019-04-28T01:48:40.964Z,51.90
2019-04-28T01:50:07.195Z,51.30
2019-04-28T01:51:32.799Z,51.70
2019-04-28T01:52:59.752Z,51.20
2019-04-28T01:54:25.472Z,51.40
2019-04-28T01:55:50.970Z,50.60
2019-04-28T01:57:16.529Z,50.90
2019-04-28T01:58:42.107Z,50.70
2019-04-28T02:00:22.322Z,51.10
2019-04-28T02:01:37.422Z,51.10
2019-04-28T02:03:02.880Z,51.40
2019-04-28T02:04:30.036Z,51.00
2019-04-28T02:05:55.885Z,50.50
2019-04-28T02:07:21.413Z,49.70
2019-04-28T02:08:46.989Z,49.40
2019-04-28T02:10:13.345Z,50.10
2019-04-28T02:11:41.051Z,50.10
2019-04-28T02:13:06.305Z,50.80
2019-04-28T02:14:31.768Z,50.90
2019-04-28T02:15:57.272Z,51.20
2019-04-28T02:17:22.820Z,51.50
2019-04-28T02:18:49.698Z,51.30
2019-04-28T02:20:16.606Z,51.60
2019-04-28T02:22:06.065Z,51.80
2019-04-28T02:23:32.160Z,52.10
2019-04-28T02:24:57.843Z,52.40
2019-04-28T02:26:23.332Z,52.40
2019-04-28T02:27:49.944Z,52.20
2019-04-28T02:29:15.687Z,52.20
2019-04-28T02:30:48.926Z,51.90
2019-04-28T02:32:10.498Z,51.70
2019-04-28T02:33:36.223Z,51.30
2019-04-28T02:35:05.088Z,51.80
2019-04-28T02:36:31.208Z,51.70
2019-04-28T02:37:56.949Z,52.00
2019-04-28T02:39:22.703Z,52.10
2019-04-28T02:40:50.419Z,52.50
2019-04-28T02:42:15.522Z,52.70
2019-04-28T02:43:41.149Z,52.80
2019-04-28T02:45:07.649Z,52.80
2019-04-28T02:46:33.299Z,53.00
2019-04-28T02:48:02.263Z,53.00
2019-04-28T02:49:33.303Z,53.00
2019-04-28T02:51:15.169Z,52.60
2019-04-28T02:53:12.723Z,52.50
2019-04-28T02:54:40.512Z,53.00
2019-04-28T02:56:05.630Z,53.40
2019-04-28T02:57:31.130Z,53.30
2019-04-28T02:58:56.617Z,53.50
2019-04-28T03:00:22.333Z,53.60
2019-04-28T03:01:50.785Z,53.70
2019-04-28T03:03:14.990Z,54.10
2019-04-28T03:04:40.985Z,53.80
2019-04-28T03:06:06.661Z,54.20
2019-04-28T03:07:32.176Z,54.20
2019-04-28T03:09:00.190Z,54.50
2019-04-28T03:10:25.040Z,54.40
2019-04-28T03:11:51.268Z,54.30
2019-04-28T03:13:16.891Z,54.50
2019-04-28T03:14:44.122Z,54.60
2019-04-28T03:16:10.843Z,54.40
2019-04-28T03:17:36.841Z,54.50
2019-04-28T03:19:02.305Z,54.40
2019-04-28T03:20:29.756Z,54.40
2019-04-28T03:21:55.238Z,54.40
2019-04-28T03:23:20.897Z,54.50
2019-04-28T03:24:47.796Z,54.70
2019-04-28T03:26:31.038Z,54.90
2019-04-28T03:28:07.462Z,55.20
2019-04-28T03:29:54.700Z,55.40
2019-04-28T03:32:03.820Z,55.50
2019-04-28T03:33:13.040Z,55.70
2019-04-28T03:34:53.073Z,55.70
2019-04-28T03:36:16.153Z,55.80
2019-04-28T03:37:41.749Z,56.10
2019-04-28T03:39:10.842Z,56.20
2019-04-28T03:40:35.366Z,55.70
2019-04-28T03:42:01.020Z,55.80
2019-04-28T03:43:26.591Z,55.90
2019-04-28T03:44:52.482Z,55.90
2019-04-28T03:46:22.516Z,55.90
2019-04-28T03:47:50.694Z,55.80
2019-04-28T03:49:32.421Z,56.10
2019-04-28T03:50:57.864Z,56.10
2019-04-28T03:52:23.353Z,56.20
2019-04-28T03:53:50.685Z,56.40
2019-04-28T03:55:15.996Z,56.20
2019-04-28T03:56:43.957Z,56.50
2019-04-28T03:58:10.346Z,56.70
2019-04-28T03:59:35.850Z,56.70
2019-04-28T04:01:03.110Z,56.80
2019-04-28T04:02:31.035Z,56.90
2019-04-28T04:03:55.546Z,57.00
2019-04-28T04:05:21.184Z,56.70
2019-04-28T04:06:46.757Z,56.20
2019-04-28T04:08:12.194Z,56.60
2019-04-28T04:10:02.820Z,56.60
2019-04-28T04:11:41.058Z,56.90
2019-04-28T04:13:25.528Z,57.00
2019-04-28T04:14:56.492Z,56.90
2019-04-28T04:16:30.751Z,56.80
2019-04-28T04:18:05.873Z,56.80
2019-04-28T04:19:34.370Z,56.70
2019-04-28T04:21:00.790Z,56.70
2019-04-28T04:22:26.468Z,56.50
2019-04-28T04:23:51.997Z,56.10
2019-04-28T04:25:20.234Z,56.70
2019-04-28T04:26:44.633Z,56.90
2019-04-28T04:28:10.728Z,56.80
2019-04-28T04:29:36.364Z,56.90
2019-04-28T04:31:03.242Z,56.60
2019-04-28T04:32:30.471Z,56.60
2019-04-28T04:33:56.146Z,56.90
2019-04-28T04:35:21.705Z,56.70
2019-04-28T04:36:47.269Z,56.80
2019-04-28T04:38:12.702Z,56.80
2019-04-28T04:39:40.675Z,56.60
2019-04-28T04:41:05.459Z,56.90
2019-04-28T04:42:30.897Z,56.90
2019-04-28T04:43:56.416Z,56.90
2019-04-28T04:45:22.078Z,56.40
2019-04-28T04:46:47.517Z,56.50
2019-04-28T04:48:13.036Z,57.00
2019-04-28T04:49:40.457Z,56.90
2019-04-28T04:51:05.850Z,56.50
2019-04-28T04:52:31.386Z,56.70
2019-04-28T04:53:56.991Z,56.20
2019-04-28T04:55:22.509Z,55.50
2019-04-28T04:56:50.019Z,55.50
2019-04-28T04:58:15.159Z,54.90
2019-04-28T04:59:40.647Z,54.40
2019-04-28T05:01:20.360Z,54.20
2019-04-28T05:02:55.188Z,53.80
2019-04-28T05:04:39.478Z,54.10
2019-04-28T05:06:23.803Z,53.60
2019-04-28T05:07:50.735Z,54.00
2019-04-28T05:09:16.459Z,53.70
2019-04-28T05:10:42.022Z,53.20
2019-04-28T05:12:07.529Z,53.50
2019-04-28T05:13:33.091Z,53.90
2019-04-28T05:15:00.396Z,54.10
2019-04-28T05:16:25.674Z,53.90
2019-04-28T05:17:51.208Z,53.60
2019-04-28T05:19:16.757Z,53.70
2019-04-28T05:20:42.337Z,53.40
2019-04-28T05:22:10.062Z,53.00
2019-04-28T05:23:45.361Z,53.20
2019-04-28T05:25:20.422Z,53.50
2019-04-28T05:26:47.872Z,54.00
2019-04-28T05:28:13.602Z,53.20
2019-04-28T05:29:39.812Z,53.50
2019-04-28T05:31:05.553Z,53.20
2019-04-28T05:32:42.630Z,53.00
2019-04-28T05:33:59.997Z,52.60
2019-04-28T05:35:25.853Z,52.50
2019-04-28T05:36:51.314Z,52.50
2019-04-28T05:38:16.775Z,52.60
2019-04-28T05:39:42.216Z,52.50
2019-04-28T05:41:07.672Z,52.30
2019-04-28T05:42:33.196Z,52.10
2019-04-28T05:43:59.611Z,51.70
2019-04-28T05:45:25.391Z,51.30
2019-04-28T05:46:50.943Z,51.00
2019-04-28T05:48:20.058Z,51.00
2019-04-28T05:50:13.157Z,51.00
2019-04-28T05:51:40.288Z,51.10
2019-04-28T05:53:14.023Z,51.10
2019-04-28T05:54:46.368Z,51.50
2019-04-28T05:56:26.403Z,51.70
2019-04-28T05:58:09.923Z,51.70
2019-04-28T05:59:55.752Z,51.50
2019-04-28T06:01:30.347Z,51.00
2019-04-28T06:02:56.900Z,51.20
2019-04-28T06:04:25.044Z,51.60
2019-04-28T06:05:50.483Z,51.50
2019-04-28T06:07:28.190Z,51.50
2019-04-28T06:09:01.773Z,51.70
2019-04-28T06:10:27.236Z,51.70
2019-04-28T06:11:54.471Z,51.50
2019-04-28T06:13:20.250Z,51.70
2019-04-28T06:14:45.882Z,51.10
2019-04-28T06:16:11.481Z,50.80
2019-04-28T06:17:36.991Z,51.00
2019-04-28T06:19:02.500Z,51.50
2019-04-28T06:20:27.962Z,50.70
2019-04-28T06:21:53.395Z,50.60
2019-04-28T06:23:18.886Z,50.70
2019-04-28T06:24:44.440Z,50.90
2019-04-28T06:26:09.878Z,50.70
2019-04-28T06:27:35.340Z,50.70
2019-04-28T06:29:00.886Z,50.70
2019-04-28T06:30:26.438Z,50.90
2019-04-28T06:31:51.889Z,51.70
2019-04-28T06:33:17.355Z,51.20
2019-04-28T06:34:42.798Z,51.30
2019-04-28T06:36:08.289Z,51.20
2019-04-28T06:37:33.766Z,50.80
2019-04-28T06:38:59.222Z,50.60
2019-04-28T06:40:24.854Z,50.70
2019-04-28T06:41:50.382Z,50.40
2019-04-28T06:43:15.999Z,50.80
2019-04-28T06:44:41.707Z,51.80
2019-04-28T06:46:07.170Z,51.90
2019-04-28T06:47:32.620Z,50.70
2019-04-28T06:48:58.208Z,49.70
2019-04-28T06:50:23.653Z,49.20
2019-04-28T06:51:49.079Z,49.10
2019-04-28T06:53:15.293Z,49.20
2019-04-28T06:54:40.880Z,49.50
2019-04-28T06:56:06.528Z,49.90
2019-04-28T06:57:31.990Z,50.00
2019-04-28T06:58:59.203Z,50.30
2019-04-28T07:00:24.593Z,50.20
2019-04-28T07:01:50.060Z,49.10
2019-04-28T07:03:23.002Z,49.60
2019-04-28T07:04:42.989Z,50.40
2019-04-28T07:06:08.655Z,50.60
2019-04-28T07:07:34.228Z,50.70
2019-04-28T07:08:59.750Z,50.30
2019-04-28T07:10:25.375Z,48.50
2019-04-28T07:11:50.860Z,48.80
2019-04-28T07:13:16.390Z,47.60
2019-04-28T07:14:42.053Z,47.40
2019-04-28T07:16:07.680Z,48.40
2019-04-28T07:17:33.209Z,48.70
2019-04-28T07:18:58.836Z,49.70
2019-04-28T07:20:33.455Z,49.20
2019-04-28T07:22:05.295Z,48.60
2019-04-28T07:23:31.289Z,47.90
2019-04-28T07:24:56.912Z,48.40
2019-04-28T07:26:22.366Z,47.60
2019-04-28T07:27:47.879Z,49.50
2019-04-28T07:29:13.397Z,47.40
2019-04-28T07:30:40.748Z,49.10
2019-04-28T07:32:06.423Z,50.50
2019-04-28T07:33:36.211Z,50.20
2019-04-28T07:34:59.246Z,47.80
2019-04-28T07:36:24.895Z,48.20
2019-04-28T07:37:50.367Z,48.10
2019-04-28T07:39:16.136Z,49.90
2019-04-28T07:40:41.788Z,48.30
2019-04-28T07:42:07.260Z,49.20
2019-04-28T07:43:32.734Z,49.80
2019-04-28T07:44:58.230Z,50.30
2019-04-28T07:46:23.709Z,50.00
2019-04-28T07:47:49.419Z,47.50
2019-04-28T07:49:15.067Z,47.40
2019-04-28T07:50:40.772Z,49.40
2019-04-28T07:52:14.345Z,48.10
2019-04-28T07:53:47.388Z,46.50
2019-04-28T07:55:13.191Z,45.70
2019-04-28T07:56:38.869Z,47.00
2019-04-28T07:58:04.551Z,47.40
2019-04-28T07:59:30.085Z,46.30
2019-04-28T08:00:56.022Z,45.40
2019-04-28T08:02:21.663Z,45.70
2019-04-28T08:03:49.796Z,44.60
2019-04-28T08:05:14.691Z,44.50
2019-04-28T08:06:40.164Z,43.90
2019-04-28T08:08:06.008Z,44.80
2019-04-28T08:09:31.475Z,45.20
2019-04-28T08:10:57.303Z,45.80
2019-04-28T08:12:22.993Z,45.00
2019-04-28T08:13:48.566Z,45.00
2019-04-28T08:15:14.500Z,45.70
2019-04-28T08:16:40.418Z,45.50
2019-04-28T08:18:06.164Z,44.30
2019-04-28T08:19:31.614Z,44.90
2019-04-28T08:21:06.572Z,45.30
2019-04-28T08:22:32.427Z,45.30
2019-04-28T08:23:58.155Z,46.20
2019-04-28T08:25:23.702Z,46.00
2019-04-28T08:26:49.468Z,45.00
2019-04-28T08:28:15.004Z,44.10
2019-04-28T08:29:40.690Z,44.50
2019-04-28T08:31:07.198Z,44.10
2019-04-28T08:32:55.280Z,45.90
2019-04-28T08:34:21.539Z,45.90
2019-04-28T08:35:47.312Z,44.70
2019-04-28T08:37:13.113Z,46.00
2019-04-28T08:38:38.705Z,45.40
2019-04-28T08:40:04.946Z,45.10
2019-04-28T08:41:30.464Z,45.50
2019-04-28T08:42:56.473Z,46.40
2019-04-28T08:44:22.187Z,46.80
2019-04-28T08:45:47.804Z,46.30
2019-04-28T08:47:13.455Z,46.80
2019-04-28T08:48:39.325Z,46.50
2019-04-28T08:50:05.035Z,46.90
2019-04-28T08:51:30.664Z,46.80
2019-04-28T08:52:56.259Z,46.30
2019-04-28T08:54:21.912Z,46.60
2019-04-28T08:55:47.937Z,46.50
2019-04-28T08:57:13.497Z,46.30
2019-04-28T08:58:38.998Z,46.70
2019-04-28T09:00:04.723Z,47.50
2019-04-28T09:01:30.447Z,46.90
2019-04-28T09:02:55.991Z,46.80
2019-04-28T09:04:21.400Z,46.10
2019-04-28T09:05:46.990Z,46.00
2019-04-28T09:07:12.706Z,46.20
2019-04-28T09:08:38.179Z,46.70
2019-04-28T09:10:03.896Z,46.40
2019-04-28T09:11:29.371Z,47.20
2019-04-28T09:12:54.841Z,47.00
2019-04-28T09:14:20.335Z,46.70
2019-04-28T09:15:45.847Z,46.60
2019-04-28T09:17:11.336Z,47.80
2019-04-28T09:18:36.776Z,47.40
2019-04-28T09:20:02.360Z,47.80
2019-04-28T09:21:27.848Z,47.30
2019-04-28T09:22:53.484Z,46.70
2019-04-28T09:24:18.931Z,47.30
2019-04-28T09:25:44.451Z,48.30
2019-04-28T09:27:10.036Z,48.80
2019-04-28T09:28:35.528Z,47.70
2019-04-28T09:30:00.977Z,47.40
2019-04-28T09:31:26.732Z,46.50
2019-04-28T09:32:52.213Z,47.40
2019-04-28T09:34:27.813Z,47.30
2019-04-28T09:35:44.773Z,46.20
2019-04-28T09:37:10.273Z,46.20
2019-04-28T09:38:35.739Z,46.40
2019-04-28T09:40:07.052Z,46.40
2019-04-28T10:25:28.736Z,42.70
2019-04-28T10:26:54.472Z,41.50
2019-04-28T10:28:20.139Z,43.20
2019-04-28T10:29:46.032Z,40.60
2019-04-28T10:31:13.413Z,42.70
2019-04-28T10:32:39.225Z,42.30
2019-04-28T10:34:05.470Z,41.90
2019-04-28T10:35:31.030Z,42.60
2019-04-28T10:36:56.632Z,42.30
2019-04-28T10:38:22.063Z,40.70
2019-04-28T10:39:57.364Z,41.40
2019-04-28T10:41:35.239Z,41.00
2019-04-28T10:43:00.683Z,42.10
2019-04-28T10:44:27.277Z,41.40
2019-04-28T10:45:53.126Z,40.30
2019-04-28T10:47:19.173Z,37.90
2019-04-28T10:48:44.763Z,39.70
2019-04-28T10:50:10.696Z,38.90
2019-04-28T10:51:36.191Z,40.50
2019-04-28T10:53:01.627Z,40.00
2019-04-28T10:54:27.133Z,38.40
2019-04-28T10:55:52.696Z,39.90
2019-04-28T10:57:18.131Z,38.80
2019-04-28T10:58:45.294Z,38.00
2019-04-28T11:00:11.684Z,39.00
2019-04-28T11:01:37.154Z,39.50
2019-04-28T11:03:02.725Z,38.70
2019-04-28T11:04:44.139Z,39.00
2019-04-28T11:06:12.547Z,38.60
2019-04-28T11:07:37.094Z,38.10
2019-04-28T11:09:30.105Z,37.80
2019-04-28T11:10:46.476Z,39.00
2019-04-28T11:12:15.244Z,38.80
2019-04-28T11:13:40.700Z,40.00
2019-04-28T11:15:08.309Z,38.60
2019-04-28T11:16:36.268Z,37.90
2019-04-28T11:18:01.768Z,38.20
2019-04-28T11:19:27.297Z,39.10
2019-04-28T11:20:52.827Z,38.30
2019-04-28T11:22:18.412Z,37.70
2019-04-28T11:23:43.847Z,37.10
2019-04-28T11:25:09.335Z,38.90
2019-04-28T11:26:35.020Z,39.20
2019-04-28T11:28:00.617Z,38.00
2019-04-28T11:29:26.185Z,37.70
2019-04-28T11:30:51.673Z,38.90
2019-04-28T11:32:17.305Z,38.70
2019-04-28T11:34:07.379Z,39.20
2019-04-28T11:35:33.013Z,37.20
2019-04-28T11:36:58.480Z,39.70
2019-04-28T11:38:24.147Z,37.70
2019-04-28T11:39:49.650Z,38.50
2019-04-28T11:41:15.250Z,37.80
2019-04-28T11:42:40.780Z,39.20
2019-04-28T11:44:06.463Z,39.90
2019-04-28T11:45:32.135Z,40.00
2019-04-28T11:46:57.872Z,39.00
2019-04-28T11:48:23.313Z,39.20
2019-04-28T11:49:48.986Z,38.50
2019-04-28T11:51:14.571Z,38.40
2019-04-28T11:52:40.078Z,37.70
2019-04-28T11:54:05.798Z,38.30
2019-04-28T11:55:31.386Z,39.30
2019-04-28T11:56:57.083Z,39.00
2019-04-28T11:58:22.511Z,38.70
2019-04-28T11:59:48.084Z,38.30
2019-04-28T12:01:14.509Z,36.50
2019-04-28T12:02:39.986Z,38.70
2019-04-28T12:04:07.208Z,37.70
2019-04-28T12:05:40.266Z,38.10
2019-04-28T12:07:06.016Z,39.20
2019-04-28T12:08:31.516Z,37.60
2019-04-28T12:10:09.837Z,38.00
2019-04-28T12:11:38.822Z,39.30
2019-04-28T12:13:23.288Z,38.80
2019-04-28T12:14:56.074Z,38.80
2019-04-28T12:16:52.665Z,37.00
2019-04-28T12:18:35.521Z,36.40
2019-04-28T12:20:19.783Z,37.00
2019-04-28T12:21:45.591Z,37.90
2019-04-28T12:23:11.096Z,37.70
2019-04-28T12:24:36.583Z,38.90
2019-04-28T12:26:02.169Z,38.10
2019-04-28T12:27:29.845Z,37.70
2019-04-28T12:28:55.312Z,37.60
2019-04-28T12:30:22.922Z,37.00
2019-04-28T12:31:48.453Z,37.70
2019-04-28T12:33:13.973Z,37.10
2019-04-28T12:34:39.570Z,37.90
2019-04-28T12:36:06.929Z,36.90
2019-04-28T12:37:32.432Z,37.70
2019-04-28T12:38:58.016Z,36.90
2019-04-28T12:40:23.438Z,36.50
2019-04-28T12:41:48.974Z,37.50
2019-04-28T12:43:14.561Z,38.40
2019-04-28T12:44:40.163Z,37.50
2019-04-28T12:46:05.812Z,37.70
2019-04-28T12:47:31.412Z,38.00
2019-04-28T12:49:00.294Z,37.20
2019-04-28T12:50:30.524Z,38.30
2019-04-28T12:51:56.036Z,39.80
2019-04-28T12:53:21.904Z,39.00
2019-04-28T12:54:47.376Z,39.00
2019-04-28T12:56:13.510Z,40.00
2019-04-28T12:57:38.972Z,40.10
2019-04-28T12:59:11.834Z,40.30
2019-04-28T13:00:56.190Z,40.00
2019-04-28T13:02:37.776Z,38.10
2019-04-28T13:04:12.537Z,37.50
2019-04-28T13:05:38.975Z,38.90
2019-04-28T13:07:07.217Z,39.80
2019-04-28T13:08:32.715Z,37.50
2019-04-28T13:09:58.195Z,37.90
2019-04-28T13:11:23.722Z,37.40
2019-04-28T13:13:08.353Z,38.20
2019-04-28T13:14:45.023Z,37.50
2019-04-28T13:16:10.716Z,38.20
2019-04-28T13:17:36.170Z,36.80
2019-04-28T13:19:01.756Z,37.10
2019-04-28T13:20:27.373Z,37.50
2019-04-28T13:21:52.913Z,37.30
2019-04-28T13:23:18.365Z,37.60
2019-04-28T13:24:43.918Z,37.10
2019-04-28T13:26:10.028Z,37.40
2019-04-28T13:27:35.997Z,38.10
2019-04-28T13:29:01.497Z,37.60
2019-04-28T13:30:27.297Z,36.60
2019-04-28T13:31:52.866Z,36.70
2019-04-28T13:33:18.432Z,37.80
2019-04-28T13:34:47.157Z,36.90
2019-04-28T13:36:14.994Z,37.00
2019-04-28T13:37:40.076Z,37.60
2019-04-28T13:39:09.655Z,38.10
2019-04-28T13:40:36.339Z,36.60
2019-04-28T13:42:01.803Z,37.40
2019-04-28T13:43:27.346Z,36.90
2019-04-28T13:45:15.311Z,36.50
2019-04-28T13:46:40.791Z,35.60
2019-04-28T13:48:06.429Z,37.20
2019-04-28T13:49:48.944Z,37.10
2019-04-28T13:51:14.498Z,37.20
2019-04-28T13:52:39.965Z,36.50
2019-04-28T13:54:07.249Z,35.70
2019-04-28T13:55:45.116Z,37.90
2019-04-28T13:57:10.623Z,37.40
2019-04-28T13:58:48.650Z,37.10
2019-04-28T14:00:15.921Z,36.30
2019-04-28T14:02:09.151Z,37.70
2019-04-28T14:03:59.521Z,37.60
2019-04-28T14:05:37.405Z,37.00
2019-04-28T14:07:07.607Z,37.40
2019-04-28T14:08:36.568Z,36.80
2019-04-28T14:10:04.874Z,39.60
2019-04-28T14:11:32.627Z,37.40
2019-04-28T14:12:58.138Z,37.90
2019-04-28T14:14:23.670Z,36.80
2019-04-28T14:15:50.167Z,37.10
2019-04-28T14:17:15.651Z,37.20
2019-04-28T14:18:41.166Z,37.00
2019-04-28T14:20:07.342Z,36.40
2019-04-28T14:21:32.771Z,37.10
2019-04-28T14:22:58.260Z,36.70
2019-04-28T14:24:23.760Z,37.00
2019-04-28T14:25:49.225Z,37.50
2019-04-28T14:27:14.750Z,35.40
2019-04-28T14:28:40.340Z,36.80
2019-04-28T14:30:06.389Z,37.50
2019-04-28T14:31:31.897Z,36.80
2019-04-28T14:32:57.341Z,37.50
2019-04-28T14:34:22.834Z,37.50
2019-04-28T14:35:48.302Z,36.40
2019-04-28T14:37:13.757Z,36.80
2019-04-28T14:38:39.244Z,37.50
2019-04-28T14:40:05.666Z,36.60
2019-04-28T14:41:31.237Z,37.70
2019-04-28T14:42:56.824Z,37.00
2019-04-28T14:44:22.258Z,36.80
2019-04-28T14:45:47.739Z,36.30
2019-04-28T14:47:13.250Z,36.80
2019-04-28T14:48:38.696Z,36.30
2019-04-28T14:50:04.412Z,35.70
2019-04-28T14:51:29.849Z,35.80
2019-04-28T14:52:57.406Z,35.70
2019-04-28T14:54:22.838Z,35.50
2019-04-28T14:55:48.396Z,35.00
2019-04-28T14:57:14.063Z,35.10
2019-04-28T14:58:39.561Z,35.40
2019-04-28T15:00:05.887Z,36.10
2019-04-28T15:02:08.372Z,36.00
2019-04-28T15:03:35.501Z,38.00
2019-04-28T15:05:19.769Z,36.20
2019-04-28T15:06:56.138Z,35.80
2019-04-28T15:08:44.149Z,36.40
2019-04-28T15:10:41.935Z,36.00
2019-04-28T15:12:08.169Z,36.90
2019-04-28T15:13:33.748Z,36.40
2019-04-28T15:14:59.281Z,36.60
2019-04-28T15:16:24.850Z,37.50
2019-04-28T15:17:50.404Z,36.00
2019-04-28T15:19:16.012Z,36.10
2019-04-28T15:20:41.486Z,38.40
2019-04-28T15:22:06.946Z,37.20
2019-04-28T15:23:32.436Z,36.50
2019-04-28T15:24:57.940Z,37.80
2019-04-28T15:26:23.552Z,37.00
2019-04-28T15:27:49.076Z,37.70
2019-04-28T15:29:14.624Z,38.30
2019-04-28T15:30:40.297Z,37.50
2019-04-28T15:32:05.950Z,37.50
2019-04-28T15:33:31.420Z,37.70
2019-04-28T15:34:56.889Z,36.50
2019-04-28T15:36:22.801Z,37.10
2019-04-28T15:37:48.334Z,37.60
2019-04-28T15:39:14.301Z,36.50
2019-04-28T15:40:39.898Z,38.00
2019-04-28T15:42:05.736Z,38.10
2019-04-28T15:43:34.361Z,38.10
2019-04-28T15:44:58.349Z,37.90
2019-04-28T15:46:23.847Z,37.50
2019-04-28T15:47:49.513Z,37.40
2019-04-28T15:49:14.935Z,37.80
2019-04-28T15:50:40.790Z,37.10
2019-04-28T15:52:06.307Z,36.90
2019-04-28T15:53:33.920Z,36.90
2019-04-28T15:54:59.434Z,37.00
2019-04-28T15:56:52.862Z,37.00
2019-04-28T15:58:32.120Z,36.70
2019-04-28T16:00:00.422Z,36.80
2019-04-28T16:01:25.877Z,37.30
2019-04-28T16:02:51.583Z,37.30
2019-04-28T16:04:18.403Z,36.80
2019-04-28T16:05:45.843Z,37.50
2019-04-28T16:07:24.644Z,37.20
2019-04-28T16:08:44.866Z,37.60
2019-04-28T16:10:10.701Z,37.50
2019-04-28T16:11:36.156Z,37.60
2019-04-28T16:13:01.708Z,37.50
2019-04-28T16:14:27.776Z,38.10
2019-04-28T16:15:53.299Z,37.60
2019-04-28T16:17:20.078Z,37.90
2019-04-28T16:18:45.669Z,38.50
2019-04-28T16:20:11.344Z,38.20
2019-04-28T16:21:36.986Z,37.70
2019-04-28T16:23:02.490Z,37.80
2019-04-28T16:24:27.944Z,38.00
2019-04-28T16:25:53.521Z,38.00
2019-04-28T16:27:19.194Z,38.00
2019-04-28T16:28:44.676Z,38.60
2019-04-28T16:30:11.105Z,38.90
2019-04-28T16:31:36.627Z,38.90
2019-04-28T16:33:02.233Z,39.50
2019-04-28T16:34:27.724Z,39.10
2019-04-28T16:35:53.211Z,38.90
2019-04-28T16:37:18.851Z,39.90
2019-04-28T16:38:44.463Z,39.50
2019-04-28T16:40:10.186Z,39.70
2019-04-28T16:41:45.547Z,41.70
2019-04-28T16:43:12.603Z,41.10
2019-04-28T16:44:43.283Z,40.70
2019-04-28T16:46:08.819Z,40.00
2019-04-28T16:47:34.408Z,41.90
2019-04-28T16:49:00.038Z,41.10
2019-04-28T16:50:25.716Z,41.30
2019-04-28T16:51:51.199Z,41.10
2019-04-28T16:53:16.783Z,41.70
2019-04-28T16:54:42.466Z,42.50
2019-04-28T16:56:25.366Z,40.60
2019-04-28T16:58:09.907Z,40.70
2019-04-28T16:59:57.057Z,41.50
2019-04-28T17:01:42.445Z,41.40
2019-04-28T17:03:08.033Z,40.90
2019-04-28T17:04:33.640Z,42.10
2019-04-28T17:05:59.127Z,42.10
2019-04-28T17:07:24.836Z,42.50
2019-04-28T17:08:50.533Z,42.80
2019-04-28T17:10:16.227Z,42.80
2019-04-28T17:11:41.967Z,43.50
2019-04-28T17:13:07.661Z,43.00
2019-04-28T17:14:33.221Z,42.20
2019-04-28T17:15:58.799Z,42.80
2019-04-28T17:17:24.659Z,43.70
2019-04-28T17:18:50.293Z,44.00
2019-04-28T17:20:16.019Z,40.90
2019-04-28T17:21:41.754Z,42.30
2019-04-28T17:23:07.513Z,42.70
2019-04-28T17:24:33.091Z,41.50
2019-04-28T17:25:58.606Z,43.00
2019-04-28T17:27:24.192Z,43.00
2019-04-28T17:28:49.930Z,43.50
2019-04-28T17:30:17.262Z,43.00
2019-04-28T17:31:42.987Z,43.30
2019-04-28T17:33:09.052Z,42.60
2019-04-28T17:34:34.664Z,43.60
2019-04-28T17:36:00.128Z,41.30
2019-04-28T17:37:26.178Z,41.50
2019-04-28T17:38:51.701Z,41.40
2019-04-28T17:40:18.606Z,40.90
2019-04-28T17:41:44.285Z,41.50
2019-04-28T17:43:10.069Z,42.20
2019-04-28T17:44:35.676Z,42.10
2019-04-28T17:46:01.363Z,41.90
2019-04-28T17:47:26.824Z,41.30
2019-04-28T17:48:55.880Z,41.90
2019-04-28T17:50:21.808Z,41.90
2019-04-28T17:51:47.331Z,43.20
2019-04-28T17:53:12.818Z,43.70
2019-04-28T17:54:38.410Z,43.70
2019-04-28T17:56:04.031Z,43.50
2019-04-28T17:57:29.518Z,43.50
2019-04-28T17:58:55.014Z,43.10
2019-04-28T18:00:39.591Z,43.70
2019-04-28T18:02:27.045Z,43.50
2019-04-28T18:04:02.474Z,42.20
2019-04-28T18:05:38.264Z,41.80
2019-04-28T18:07:24.040Z,41.40
2019-04-28T18:08:49.626Z,41.50
2019-04-28T18:10:15.309Z,42.40
2019-04-28T18:11:40.914Z,43.10
2019-04-28T18:13:06.778Z,42.80
2019-04-28T18:14:32.226Z,42.90
2019-04-28T18:16:11.991Z,43.40
2019-04-28T18:17:54.897Z,42.00
2019-04-28T18:19:20.536Z,41.10
2019-04-28T18:20:46.076Z,40.90
2019-04-28T18:22:11.562Z,40.80
2019-04-28T18:23:37.064Z,41.10
2019-04-28T18:25:02.540Z,41.00
2019-04-28T18:26:28.047Z,41.40
2019-04-28T18:27:53.533Z,42.20
2019-04-28T18:29:19.019Z,41.50
2019-04-28T18:31:15.701Z,42.10
2019-04-28T18:32:56.554Z,42.40
2019-04-28T18:34:37.319Z,41.90
2019-04-28T18:36:13.846Z,41.60
2019-04-28T18:38:07.254Z,41.20
2019-04-28T18:40:00.817Z,41.00
2019-04-28T18:41:52.073Z,41.20
2019-04-28T18:43:21.381Z,41.70
2019-04-28T18:44:46.820Z,41.50
2019-04-28T18:46:12.327Z,41.60
2019-04-28T18:47:37.857Z,41.70
2019-04-28T18:49:03.348Z,41.60
2019-04-28T18:50:28.837Z,41.30
2019-04-28T18:51:54.289Z,41.60
2019-04-28T18:53:19.784Z,41.60
2019-04-28T18:54:45.282Z,40.70
2019-04-28T18:56:10.787Z,40.80
2019-04-28T18:57:36.311Z,41.40
2019-04-28T18:59:01.760Z,40.70
2019-04-28T19:00:28.898Z,40.60
2019-04-28T19:02:08.144Z,40.40
2019-04-28T19:03:34.960Z,40.60
2019-04-28T19:05:00.443Z,40.70
2019-04-28T19:06:25.964Z,40.80
2019-04-28T19:08:16.361Z,41.00
2019-04-28T19:09:56.494Z,41.10
2019-04-28T19:11:44.136Z,41.00
2019-04-28T19:13:14.079Z,41.30
2019-04-28T19:14:43.285Z,41.20
2019-04-28T19:16:26.343Z,40.80
2019-04-28T19:18:01.390Z,41.30
2019-04-28T19:19:28.110Z,41.50
2019-04-28T19:20:53.587Z,41.30
2019-04-28T19:22:19.091Z,40.80
2019-04-28T19:23:44.608Z,40.90
2019-04-28T19:25:10.297Z,40.30
2019-04-28T19:26:35.725Z,40.20
2019-04-28T19:28:01.195Z,40.20
2019-04-28T19:29:26.891Z,40.40
2019-04-28T19:30:52.595Z,40.30
2019-04-28T19:32:18.068Z,40.40
2019-04-28T19:33:43.531Z,40.50
2019-04-28T19:35:09.584Z,40.10
2019-04-28T19:36:35.030Z,40.30
2019-04-28T19:38:00.568Z,40.40
2019-04-28T19:39:26.018Z,40.20